Time;durP1;ratioP1;P1;durP2;ratioP2;P2;SDS_P1;SDS_P2;PMS_P1;PMS_P2;Temp;Humidity;BMP_temperature;BMP_pressure;BME280_temperature;BME280_humidity;BME280_pressure;Samples;Min_cycle;Max_cycle;Signal;HPM_P1;HPM_P2
2022/12/02 00:01:11;;;;;;;;;;;;;;;2.31;100.00;96807.56;5096508;28;19953;-78
2022/12/02 00:03:37;;;;;;;;;;;;;;;2.30;100.00;96800.78;5095510;28;19960;-79
2022/12/02 00:06:03;;;;;;;;;;;;;;;2.30;100.00;96801.59;5096500;28;19948;-78
2022/12/02 00:08:30;;;;;;;;;;;;;;;2.29;100.00;96797.38;5096288;28;19968;-78
2022/12/02 00:10:57;;;;;;;;;;;;;;;2.28;100.00;96800.94;5096966;28;19954;-78
2022/12/02 00:13:27;;;;;;;;;;;;;;;2.28;100.00;96800.94;5095055;28;19950;-78
2022/12/02 00:15:57;;;;;;;;;;;;;;;2.27;100.00;96798.50;5096355;28;19971;-78
2022/12/02 00:18:23;;;;;;;;;;;;;;;2.24;100.00;96794.44;5096180;28;19946;-78
2022/12/02 00:20:49;;;;;;;;;;;;;;;2.23;100.00;96798.81;5096249;28;19953;-78
2022/12/02 00:23:15;;;;;;;;;;;;;;;2.24;100.00;96789.28;5096063;28;20440;-78
2022/12/02 00:25:43;;;;;;;;;;;;;;;2.25;100.00;96790.91;5096047;28;19969;-78
2022/12/02 00:28:09;;;;;;;;;;;;;;;2.27;100.00;96785.56;5096067;28;19956;-77
2022/12/02 00:30:35;;;;;;;;;;;;;;;2.26;100.00;96789.91;5096193;28;19948;-77
2022/12/02 00:33:01;;;;;;;;;;;;;;;2.26;100.00;96784.75;5094688;28;20414;-77
2022/12/02 00:35:27;;;;;;;;;;;;;;;2.26;100.00;96782.16;5095528;28;20008;-77
2022/12/02 00:37:52;;;;;;;;;;;;;;;2.28;100.00;96777.63;5095930;28;19963;-77
2022/12/02 00:40:18;;;;;;;;;;;;;;;2.27;100.00;96781.22;5095736;28;19967;-77
2022/12/02 00:42:44;;;;;;;;;;;;;;;2.29;100.00;96775.84;5095740;28;20367;-78
2022/12/02 00:47:55;;;;;;;;;;;;;;;2.30;100.00;96764.56;5095850;28;19948;-78
2022/12/02 00:50:21;;;;;;;;;;;;;;;2.30;100.00;96769.72;5095428;28;20314;-78
2022/12/02 00:52:47;;;;;;;;;;;;;;;2.30;100.00;96770.53;5095289;28;20037;-78
2022/12/02 00:55:13;;;;;;;;;;;;;;;2.30;100.00;96762.75;5095875;28;19962;-78
2022/12/02 00:57:39;;;;;;;;;;;;;;;2.30;100.00;96764.56;5094238;28;20419;-78
2022/12/02 01:00:05;;;;;;;;;;;;;;;2.30;100.00;96764.56;5095388;28;20002;-77
2022/12/02 01:02:32;;;;;;;;;;;;;;;2.27;100.00;96759.66;5095452;28;19947;-77
2022/12/02 01:04:58;;;;;;;;;;;;;;;2.28;100.00;96762.13;5074996;28;20423;-77
2022/12/02 01:07:23;;;;;;;;;;;;;;;2.26;100.00;96758.06;5089249;28;20039;-79
2022/12/02 01:09:49;;;;;;;;;;;;;;;2.25;100.00;96754.69;5095383;28;20378;-78
2022/12/02 01:12:15;;;;;;;;;;;;;;;2.22;100.00;96755.78;5095086;28;20333;-77
2022/12/02 01:14:41;;;;;;;;;;;;;;;2.22;100.00;96760.16;5095049;28;19947;-78
2022/12/02 01:17:07;;;;;;;;;;;;;;;2.21;100.00;96759.34;5094971;28;20644;-78
2022/12/02 01:19:33;;;;;;;;;;;;;;;2.20;100.00;96756.91;5094947;28;19951;-78
2022/12/02 01:21:59;;;;;;;;;;;;;;;2.22;100.00;96755.78;5094258;28;19991;-78
2022/12/02 01:24:25;;;;;;;;;;;;;;;2.24;100.00;96760.81;5094964;28;20453;-78
2022/12/02 01:26:51;;;;;;;;;;;;;;;2.22;100.00;96758.38;5095345;28;20354;-78
2022/12/02 01:29:16;;;;;;;;;;;;;;;2.26;100.00;96752.88;5093609;28;19953;-78
2022/12/02 01:31:42;;;;;;;;;;;;;;;2.24;100.00;96747.88;5093585;28;20419;-78
2022/12/02 01:34:08;;;;;;;;;;;;;;;2.22;100.00;96748.00;5093154;28;19975;-78
2022/12/02 01:36:34;;;;;;;;;;;;;;;2.22;100.00;96745.44;5076729;28;19970;-78
2022/12/02 01:39:00;;;;;;;;;;;;;;;2.22;100.00;96740.25;5094644;28;20046;-78
2022/12/02 01:41:26;;;;;;;;;;;;;;;2.23;100.00;96749.66;5094893;28;20410;-79
2022/12/02 01:43:52;;;;;;;;;;;;;;;2.23;100.00;96749.66;5094698;28;19944;-79
2022/12/02 01:46:18;;;;;;;;;;;;;;;2.22;100.00;96742.03;5094464;28;19948;-79
2022/12/02 01:48:44;;;;;;;;;;;;;;;2.23;100.00;96749.66;5093553;28;20053;-80
2022/12/02 01:51:10;;;;;;;;;;;;;;;2.21;100.00;96740.44;5094382;28;19963;-78
2022/12/02 01:53:36;;;;;;;;;;;;;;;2.20;100.00;96749.16;5094764;28;19953;-78
2022/12/02 01:56:02;;;;;;;;;;;;;;;2.20;100.00;96743.97;5094464;28;20037;-78
2022/12/02 01:58:29;;;;;;;;;;;;;;;2.20;100.00;96743.97;5094379;28;19949;-78
2022/12/02 02:00:55;;;;;;;;;;;;;;;2.20;100.00;96744.78;5094249;28;19949;-78
2022/12/02 02:03:22;;;;;;;;;;;;;;;2.19;100.00;96739.78;5093600;28;19954;-79
2022/12/02 02:05:48;;;;;;;;;;;;;;;2.18;100.00;96744.16;5094771;28;19952;-79
2022/12/02 02:08:14;;;;;;;;;;;;;;;2.19;100.00;96740.59;5093185;28;19955;-77
2022/12/02 02:10:42;;;;;;;;;;;;;;;2.19;100.00;96745.75;5076272;28;19977;-79
2022/12/02 02:13:10;;;;;;;;;;;;;;;2.18;100.00;96738.97;5094201;28;19951;-78
2022/12/02 02:15:43;;;;;;;;;;;;;;;2.18;100.00;96733.81;5092594;28;19960;-78
2022/12/02 02:18:09;;;;;;;;;;;;;;;2.21;100.00;96740.44;5094142;28;19945;-78
2022/12/02 02:20:38;;;;;;;;;;;;;;;2.19;100.00;96742.38;5092893;28;19951;-78
2022/12/02 02:23:07;;;;;;;;;;;;;;;2.18;100.00;96738.97;5093177;28;19952;-78
2022/12/02 02:25:38;;;;;;;;;;;;;;;2.16;100.00;96730.56;5093865;28;19946;-78
2022/12/02 02:28:04;;;;;;;;;;;;;;;2.15;100.00;96734.09;5092702;28;19949;-78
2022/12/02 02:30:31;;;;;;;;;;;;;;;2.15;100.00;96725.53;5094388;28;19955;-78
2022/12/02 02:32:57;;;;;;;;;;;;;;;2.16;100.00;96721.97;5093585;28;19946;-78
2022/12/02 02:35:23;;;;;;;;;;;;;;;2.14;100.00;96719.56;5092560;28;19979;-79
2022/12/02 02:37:50;;;;;;;;;;;;;;;2.13;100.00;96717.94;5093945;28;19964;-79
2022/12/02 02:40:16;;;;;;;;;;;;;;;2.12;100.00;96718.91;5093764;28;19957;-79
2022/12/02 02:42:47;;;;;;;;;;;;;;;2.11;100.00;96712.09;5092661;28;19953;-78
2022/12/02 02:45:13;;;;;;;;;;;;;;;2.09;100.00;96713.22;5092598;28;20436;-78
2022/12/02 02:47:39;;;;;;;;;;;;;;;2.08;100.00;96711.59;5093570;28;20995;-78
2022/12/02 02:50:06;;;;;;;;;;;;;;;2.07;100.00;96704.81;5093665;28;20044;-79
2022/12/02 02:52:32;;;;;;;;;;;;;;;2.08;100.00;96701.25;5092670;28;20303;-79
2022/12/02 02:54:57;;;;;;;;;;;;;;;2.07;100.00;96700.44;5093390;28;20039;-78
2022/12/02 02:57:24;;;;;;;;;;;;;;;2.07;100.00;96694.47;5092573;28;19960;-78
2022/12/02 02:59:52;;;;;;;;;;;;;;;2.07;100.00;96697.06;5093545;28;19990;-78
2022/12/02 03:02:19;;;;;;;;;;;;;;;2.06;100.00;96698.00;5093697;28;20314;-79
2022/12/02 03:04:45;;;;;;;;;;;;;;;2.07;100.00;96697.06;5093514;28;19949;-78
2022/12/02 03:07:11;;;;;;;;;;;;;;;2.07;100.00;96697.06;5077089;28;19955;-79
2022/12/02 03:09:37;;;;;;;;;;;;;;;2.08;100.00;96696.91;5090964;28;19958;-78
2022/12/02 03:12:04;;;;;;;;;;;;;;;2.13;100.00;96691.25;5093855;28;19953;-78
2022/12/02 03:14:30;;;;;;;;;;;;;;;2.15;100.00;96700.47;5094832;28;20461;-78
2022/12/02 03:16:56;;;;;;;;;;;;;;;2.16;100.00;96694.34;5097308;28;20071;-79
2022/12/02 03:19:23;;;;;;;;;;;;;;;2.15;100.00;96690.13;5096259;28;19972;-78
2022/12/02 03:21:49;;;;;;;;;;;;;;;2.15;100.00;96687.53;5096403;28;20422;-78
2022/12/02 03:24:15;;;;;;;;;;;;;;;2.17;100.00;96698.53;5097342;28;19960;-78
2022/12/02 03:26:41;;;;;;;;;;;;;;;2.18;100.00;96688.97;5097799;28;19953;-78
2022/12/02 03:29:09;;;;;;;;;;;;;;;2.19;100.00;96693.22;5097328;28;19961;-78
2022/12/02 03:31:35;;;;;;;;;;;;;;;2.18;100.00;96691.56;5097575;28;19951;-78
2022/12/02 03:34:01;;;;;;;;;;;;;;;2.17;100.00;96695.16;5097117;28;20016;-78
2022/12/02 03:36:27;;;;;;;;;;;;;;;2.14;100.00;96693.69;5096030;28;20527;-79
2022/12/02 03:38:53;;;;;;;;;;;;;;;2.14;100.00;96692.84;5095596;28;20416;-79
2022/12/02 03:41:19;;;;;;;;;;;;;;;2.12;100.00;96698.22;5097045;28;19953;-80
2022/12/02 03:43:45;;;;;;;;;;;;;;;2.11;100.00;96694.00;5096861;28;19952;-78
2022/12/02 03:46:11;;;;;;;;;;;;;;;2.09;100.00;96690.75;5096800;28;19954;-79
2022/12/02 03:48:38;;;;;;;;;;;;;;;2.08;100.00;96686.56;5096048;28;20319;-78
2022/12/02 03:51:05;;;;;;;;;;;;;;;2.06;100.00;96690.25;5096955;28;19965;-79
2022/12/02 03:53:32;;;;;;;;;;;;;;;2.04;100.00;96693.00;5095303;28;20408;-78
2022/12/02 03:56:01;;;;;;;;;;;;;;;2.01;100.00;96680.38;5096951;28;20335;-78
2022/12/02 03:58:34;;;;;;;;;;;;;;;2.03;100.00;96681.84;5095306;28;19973;-81
2022/12/02 04:01:00;;;;;;;;;;;;;;;2.03;100.00;96676.66;5097025;28;19952;-78
2022/12/02 04:03:26;;;;;;;;;;;;;;;2.04;100.00;96680.09;5096888;28;19953;-78
2022/12/02 04:05:52;;;;;;;;;;;;;;;2.04;100.00;96677.50;5095209;28;20012;-79
2022/12/02 04:08:18;;;;;;;;;;;;;;;2.03;100.00;96671.50;5095549;28;19951;-78
2022/12/02 04:10:44;;;;;;;;;;;;;;;2.02;100.00;96672.47;5096714;28;20034;-77
2022/12/02 04:13:09;;;;;;;;;;;;;;;2.02;100.00;96669.88;5096558;28;20397;-79
2022/12/02 04:15:35;;;;;;;;;;;;;;;2.03;100.00;96665.50;5095131;28;19961;-78
2022/12/02 04:18:01;;;;;;;;;;;;;;;2.02;100.00;96661.31;5096334;28;19955;-78
2022/12/02 04:20:27;;;;;;;;;;;;;;;2.02;100.00;96658.75;5094989;28;19992;-78
2022/12/02 04:22:53;;;;;;;;;;;;;;;2.01;100.00;96660.50;5096237;28;19965;-78
2022/12/02 04:25:19;;;;;;;;;;;;;;;1.99;100.00;96657.25;5096399;28;19956;-78
2022/12/02 04:27:45;;;;;;;;;;;;;;;1.99;100.00;96656.44;5095470;28;19948;-78
2022/12/02 04:30:11;;;;;;;;;;;;;;;1.98;100.00;96658.22;5096169;28;19959;-78
2022/12/02 04:32:36;;;;;;;;;;;;;;;1.99;100.00;96654.66;5096207;28;20481;-78
2022/12/02 04:35:03;;;;;;;;;;;;;;;1.98;100.00;96657.44;5095873;28;19982;-78
2022/12/02 04:37:28;;;;;;;;;;;;;;;1.98;100.00;96654.84;5096051;28;19988;-78
2022/12/02 04:39:54;;;;;;;;;;;;;;;1.98;100.00;96655.66;5096107;28;20012;-79
2022/12/02 04:42:20;;;;;;;;;;;;;;;2.00;100.00;96658.09;5096278;28;19990;-78
2022/12/02 04:44:46;;;;;;;;;;;;;;;1.99;100.00;96662.44;5094643;28;20389;-79
2022/12/02 04:47:12;;;;;;;;;;;;;;;2.01;100.00;96655.31;5095861;28;19957;-79
2022/12/02 04:49:38;;;;;;;;;;;;;;;2.06;100.00;96652.28;5095749;28;20408;-78
2022/12/02 04:52:04;;;;;;;;;;;;;;;2.08;100.00;96655.53;5095474;28;20010;-79
2022/12/02 04:54:30;;;;;;;;;;;;;;;2.09;100.00;96659.72;5095414;28;19954;-78
2022/12/02 04:56:55;;;;;;;;;;;;;;;2.12;100.00;96661.16;5094897;28;20046;-79
2022/12/02 04:59:21;;;;;;;;;;;;;;;2.13;100.00;96665.38;5095492;28;20016;-78
2022/12/02 05:01:47;;;;;;;;;;;;;;;2.11;100.00;96655.19;5095440;28;19959;-76
2022/12/02 05:04:13;;;;;;;;;;;;;;;2.09;100.00;96649.38;5095741;28;19953;-79
2022/12/02 05:06:39;;;;;;;;;;;;;;;2.06;100.00;96657.44;5095472;28;19954;-79
2022/12/02 05:09:05;;;;;;;;;;;;;;;2.04;100.00;96661.97;5094172;28;19955;-78
2022/12/02 05:11:31;;;;;;;;;;;;;;;2.06;100.00;96660.03;5095248;28;19951;-78
2022/12/02 05:13:57;;;;;;;;;;;;;;;2.07;100.00;96655.66;5094274;28;19953;-79
2022/12/02 05:16:22;;;;;;;;;;;;;;;2.05;100.00;96652.44;5095063;28;19964;-78
2022/12/02 05:18:48;;;;;;;;;;;;;;;2.05;100.00;96650.66;5094941;28;19949;-78
2022/12/02 05:21:14;;;;;;;;;;;;;;;2.04;100.00;96654.22;5093766;28;20442;-79
2022/12/02 05:23:40;;;;;;;;;;;;;;;2.03;100.00;96645.63;5095464;28;19986;-78
2022/12/02 05:26:06;;;;;;;;;;;;;;;2.01;100.00;96649.34;5095151;28;20404;-79
2022/12/02 05:28:32;;;;;;;;;;;;;;;2.01;100.00;96644.16;5094870;28;20322;-79
2022/12/02 05:30:58;;;;;;;;;;;;;;;2.01;100.00;96649.34;5093829;28;19975;-78
2022/12/02 05:33:24;;;;;;;;;;;;;;;2.02;100.00;96649.19;5094835;28;20382;-78
2022/12/02 05:35:50;;;;;;;;;;;;;;;2.04;100.00;96641.28;5095458;28;20408;-78
2022/12/02 05:38:16;;;;;;;;;;;;;;;2.06;100.00;96641.94;5093752;28;20294;-78
2022/12/02 05:40:42;;;;;;;;;;;;;;;2.08;100.00;96636.56;5093445;28;20036;-78
2022/12/02 05:43:13;;;;;;;;;;;;;;;2.09;100.00;96635.63;5094702;28;20042;-78
2022/12/02 05:45:39;;;;;;;;;;;;;;;2.09;100.00;96633.03;5093586;28;20401;-78
2022/12/02 05:48:09;;;;;;;;;;;;;;;2.10;100.00;96635.47;5093410;28;19956;-79
2022/12/02 05:50:35;;;;;;;;;;;;;;;2.12;100.00;96640.47;5094687;28;19955;-78
2022/12/02 05:53:01;;;;;;;;;;;;;;;2.11;100.00;96638.84;5093208;28;19955;-78
2022/12/02 05:55:27;;;;;;;;;;;;;;;2.11;100.00;96638.84;5094459;28;19952;-78
2022/12/02 05:57:58;;;;;;;;;;;;;;;2.09;100.00;96636.44;5093296;28;19954;-79
2022/12/02 06:00:23;;;;;;;;;;;;;;;2.08;100.00;96641.75;5094385;28;19954;-78
2022/12/02 06:02:51;;;;;;;;;;;;;;;2.06;100.00;96636.75;5093953;28;19947;-79
2022/12/02 06:05:19;;;;;;;;;;;;;;;2.05;100.00;96645.47;5094348;28;20319;-78
2022/12/02 06:07:46;;;;;;;;;;;;;;;2.03;100.00;96640.44;5094545;28;19950;-78
2022/12/02 06:10:18;;;;;;;;;;;;;;;2.05;100.00;96642.88;5094197;28;20018;-78
2022/12/02 06:12:44;;;;;;;;;;;;;;;2.06;100.00;96641.94;5094400;28;19950;-78
2022/12/02 06:15:13;;;;;;;;;;;;;;;2.08;100.00;96641.75;5094092;28;20303;-78
2022/12/02 06:17:43;;;;;;;;;;;;;;;2.08;100.00;96645.16;5082166;28;19961;-78
2022/12/02 06:20:20;;;;;;;;;;;;;;;2.09;100.00;96638.22;5093953;28;19994;-78
2022/12/02 06:22:46;;;;;;;;;;;;;;;2.12;100.00;96636.13;5093978;28;19951;-78
2022/12/02 06:25:24;;;;;;;;;;;;;;;2.10;100.00;96632.06;5092675;28;19999;-78
2022/12/02 06:27:51;;;;;;;;;;;;;;;2.07;100.00;96625.44;5094207;28;19945;-79
2022/12/02 06:30:17;;;;;;;;;;;;;;;2.06;100.00;96621.25;5093800;28;19983;-78
2022/12/02 06:32:52;;;;;;;;;;;;;;;2.07;100.00;96630.59;5093931;28;20048;-78
2022/12/02 06:35:19;;;;;;;;;;;;;;;2.08;100.00;96632.22;5093958;28;19988;-79
2022/12/02 06:37:45;;;;;;;;;;;;;;;2.11;100.00;96631.91;5093588;28;19973;-78
2022/12/02 06:40:30;;;;;;;;;;;;;;;2.15;100.00;96635.78;5093726;28;19956;-78
2022/12/02 06:42:57;;;;;;;;;;;;;;;2.18;100.00;96629.47;5093902;28;19954;-78
2022/12/02 06:45:23;;;;;;;;;;;;;;;2.19;100.00;96628.53;5093874;28;19948;-78
2022/12/02 06:48:17;;;;;;;;;;;;;;;2.19;100.00;96624.16;5093634;28;19954;-78
2022/12/02 06:50:45;;;;;;;;;;;;;;;2.21;100.00;96632.56;5099658;28;20408;-78
2022/12/02 06:53:11;;;;;;;;;;;;;;;2.19;100.00;96626.75;5100259;28;19950;-78
2022/12/02 06:55:37;;;;;;;;;;;;;;;2.19;100.00;96629.31;5100815;28;19946;-78
2022/12/02 06:58:21;;;;;;;;;;;;;;;2.21;100.00;96624.81;5099925;28;19964;-78
2022/12/02 07:00:47;;;;;;;;;;;;;;;2.22;100.00;96618.63;5100505;28;20414;-79
2022/12/02 07:03:28;;;;;;;;;;;;;;;2.25;100.00;96633.06;5100033;28;19946;-78
2022/12/02 07:05:54;;;;;;;;;;;;;;;2.24;100.00;96629.63;5099337;28;19958;-79
2022/12/02 07:08:21;;;;;;;;;;;;;;;2.27;100.00;96625.94;5100082;28;19951;-78
2022/12/02 07:10:47;;;;;;;;;;;;;;;2.31;100.00;96635.00;5100179;28;19945;-78
2022/12/02 07:13:15;;;;;;;;;;;;;;;2.31;100.00;96636.75;5099207;28;19961;-78
2022/12/02 07:15:41;;;;;;;;;;;;;;;2.30;100.00;96632.56;5098720;28;19979;-78
2022/12/02 07:18:15;;;;;;;;;;;;;;;2.27;100.00;96636.28;5100159;28;19948;-78
2022/12/02 07:20:42;;;;;;;;;;;;;;;2.28;100.00;96637.09;5100067;28;20420;-78
2022/12/02 07:23:11;;;;;;;;;;;;;;;2.27;100.00;96638.06;5099002;28;19951;-79
2022/12/02 07:25:44;;;;;;;;;;;;;;;2.25;100.00;96638.22;5100133;28;19947;-79
2022/12/02 07:28:19;;;;;;;;;;;;;;;2.21;100.00;96637.75;5091090;28;20416;-78
2022/12/02 07:30:54;;;;;;;;;;;;;;;2.18;100.00;96630.31;5100107;28;20424;-78
2022/12/02 07:33:20;;;;;;;;;;;;;;;2.18;100.00;96635.47;5098784;28;19952;-79
2022/12/02 07:35:46;;;;;;;;;;;;;;;2.19;100.00;96639.66;5100071;28;19978;-79
2022/12/02 07:38:12;;;;;;;;;;;;;;;2.19;100.00;96636.28;5098932;28;19961;-78
2022/12/02 07:40:38;;;;;;;;;;;;;;;2.17;100.00;96633.84;5099883;28;20308;-78
2022/12/02 07:43:04;;;;;;;;;;;;;;;2.14;100.00;96636.78;5100306;28;20343;-79
2022/12/02 07:45:30;;;;;;;;;;;;;;;2.14;100.00;96630.78;5100113;28;19957;-79
2022/12/02 07:47:56;;;;;;;;;;;;;;;2.13;100.00;96632.56;5099960;28;19951;-79
2022/12/02 07:50:22;;;;;;;;;;;;;;;2.14;100.00;96633.34;5099980;28;19994;-78
2022/12/02 07:52:48;;;;;;;;;;;;;;;2.15;100.00;96633.19;5100015;28;19952;-79
2022/12/02 07:55:14;;;;;;;;;;;;;;;2.18;100.00;96630.31;5098792;28;19955;-79
2022/12/02 07:57:40;;;;;;;;;;;;;;;2.18;100.00;96632.91;5099901;28;19971;-78
2022/12/02 08:00:06;;;;;;;;;;;;;;;2.19;100.00;96633.69;5099685;28;19954;-79
2022/12/02 08:02:32;;;;;;;;;;;;;;;2.20;100.00;96641.28;5095570;28;19948;-79
2022/12/02 08:04:58;;;;;;;;;;;;;;;2.20;100.00;96632.72;5096477;28;19994;-78
2022/12/02 08:07:24;;;;;;;;;;;;;;;2.23;100.00;96643.56;5095336;28;20043;-78
2022/12/02 08:09:50;;;;;;;;;;;;;;;2.23;100.00;96635.81;5096337;28;20375;-79
2022/12/02 08:12:16;;;;;;;;;;;;;;;2.26;100.00;96634.66;5096754;28;19954;-79
2022/12/02 08:14:41;;;;;;;;;;;;;;;2.27;100.00;96641.47;5095274;28;20003;-78
2022/12/02 08:17:07;;;;;;;;;;;;;;;2.28;100.00;96640.50;5096588;28;19970;-78
2022/12/02 08:19:33;;;;;;;;;;;;;;;2.30;100.00;96643.72;5096397;28;20462;-78
2022/12/02 08:21:59;;;;;;;;;;;;;;;2.32;100.00;96640.97;5096293;28;20008;-79
2022/12/02 08:24:25;;;;;;;;;;;;;;;2.34;100.00;96641.63;5096210;28;19955;-78
2022/12/02 08:26:51;;;;;;;;;;;;;;;2.35;100.00;96643.22;5096226;28;20045;-79
2022/12/02 08:29:16;;;;;;;;;;;;;;;2.33;100.00;96638.25;5096337;28;20396;-78
2022/12/02 08:31:42;;;;;;;;;;;;;;;2.34;100.00;96636.47;5094946;28;19953;-79
2022/12/02 08:34:08;;;;;;;;;;;;;;;2.35;100.00;96640.66;5077616;28;19975;-79
2022/12/02 08:36:34;;;;;;;;;;;;;;;2.38;100.00;96627.41;5094826;28;20053;-78
2022/12/02 08:39:04;;;;;;;;;;;;;;;2.38;100.00;96635.16;5096067;28;19976;-79
2022/12/02 08:41:31;;;;;;;;;;;;;;;2.37;100.00;96626.59;5095711;28;19942;-78
2022/12/02 08:43:58;;;;;;;;;;;;;;;2.37;100.00;96628.34;5094663;28;19946;-78
2022/12/02 08:46:24;;;;;;;;;;;;;;;2.34;100.00;96624.31;5095755;28;19961;-78
2022/12/02 08:48:50;;;;;;;;;;;;;;;2.33;100.00;96625.31;5095946;28;19946;-78
2022/12/02 08:51:16;;;;;;;;;;;;;;;2.33;100.00;96614.13;5095434;28;19945;-78
2022/12/02 08:53:42;;;;;;;;;;;;;;;2.34;100.00;96618.34;5094203;28;19964;-78
2022/12/02 08:56:07;;;;;;;;;;;;;;;2.35;100.00;96609.59;5096055;28;19950;-78
2022/12/02 08:58:33;;;;;;;;;;;;;;;2.36;100.00;96619.00;5096102;28;20037;-78
2022/12/02 09:00:59;;;;;;;;;;;;;;;2.36;100.00;96616.41;5095437;28;19948;-78
2022/12/02 09:03:25;;;;;;;;;;;;;;;2.36;100.00;96614.63;5094172;28;20357;-78
2022/12/02 09:05:51;;;;;;;;;;;;;;;2.36;100.00;96614.63;5095317;28;19975;-78
2022/12/02 09:08:17;;;;;;;;;;;;;;;2.37;100.00;96615.41;5095180;28;19974;-78
2022/12/02 09:10:43;;;;;;;;;;;;;;;2.39;100.00;96610.88;5095151;28;20440;-78
2022/12/02 09:13:09;;;;;;;;;;;;;;;2.42;100.00;96605.41;5095131;28;20023;-78
2022/12/02 09:15:34;;;;;;;;;;;;;;;2.44;100.00;96609.44;5095272;28;20392;-78
2022/12/02 09:18:00;;;;;;;;;;;;;;;2.47;100.00;96610.88;5093812;28;20385;-77
2022/12/02 09:20:26;;;;;;;;;;;;;;;2.47;100.00;96616.06;5094046;28;20001;-78
2022/12/02 09:22:52;;;;;;;;;;;;;;;2.49;100.00;96618.50;5094899;28;19995;-78
2022/12/02 09:25:18;;;;;;;;;;;;;;;2.51;100.00;96604.41;5095540;28;19964;-78
2022/12/02 09:27:44;;;;;;;;;;;;;;;2.52;100.00;96608.63;5094860;28;19957;-78
2022/12/02 09:30:10;;;;;;;;;;;;;;;2.54;100.00;96606.69;5093967;28;19950;-78
2022/12/02 09:32:36;;;;;;;;;;;;;;;2.58;100.00;96607.97;5095097;28;20411;-78
2022/12/02 09:35:02;;;;;;;;;;;;;;;2.61;100.00;96610.22;5095095;28;20449;-78
2022/12/02 09:37:28;;;;;;;;;;;;;;;2.64;100.00;96601.31;5094694;28;19982;-78
2022/12/02 09:39:54;;;;;;;;;;;;;;;2.65;100.00;96600.38;5095055;28;19957;-78
2022/12/02 09:42:20;;;;;;;;;;;;;;;2.69;100.00;96604.25;5094771;28;20002;-77
2022/12/02 09:44:46;;;;;;;;;;;;;;;2.71;100.00;96604.06;5094709;28;19949;-78
2022/12/02 09:47:12;;;;;;;;;;;;;;;2.71;100.00;96604.06;5094525;28;20017;-78
2022/12/02 09:49:39;;;;;;;;;;;;;;;2.71;100.00;96601.47;5094535;28;19948;-78
2022/12/02 09:52:12;;;;;;;;;;;;;;;2.71;100.00;96599.72;5094622;28;19953;-78
2022/12/02 09:54:38;;;;;;;;;;;;;;;2.69;100.00;96603.41;5095058;28;19950;-78
2022/12/02 09:57:14;;;;;;;;;;;;;;;2.68;100.00;96602.63;5094466;28;20015;-78
2022/12/02 09:59:40;;;;;;;;;;;;;;;2.68;100.00;96602.63;5094339;28;19949;-78
2022/12/02 10:02:25;;;;;;;;;;;;;;;2.71;100.00;96596.28;5094193;28;19952;-78
2022/12/02 10:04:51;;;;;;;;;;;;;;;2.70;100.00;96589.50;5094677;28;19953;-78
2022/12/02 10:07:17;;;;;;;;;;;;;;;2.72;100.00;96595.34;5094103;28;19959;-78
2022/12/02 10:09:42;;;;;;;;;;;;;;;2.75;100.00;96589.81;5094239;28;19950;-78
2022/12/02 10:12:10;;;;;;;;;;;;;;;2.74;100.00;96590.81;5094250;28;20335;-78
2022/12/02 10:14:36;;;;;;;;;;;;;;;2.73;100.00;96587.41;5092896;28;19950;-78
2022/12/02 10:17:13;;;;;;;;;;;;;;;2.73;100.00;96591.75;5092720;28;19970;-78
2022/12/02 10:19:39;;;;;;;;;;;;;;;2.71;100.00;96581.59;5094361;28;19960;-78
2022/12/02 10:22:12;;;;;;;;;;;;;;;2.71;100.00;96581.59;5092977;28;20046;-78
2022/12/02 10:24:38;;;;;;;;;;;;;;;2.75;100.00;96579.44;5093498;28;20312;-78
2022/12/02 10:27:04;;;;;;;;;;;;;;;2.79;100.00;96580.75;5093870;28;19950;-78
2022/12/02 10:29:31;;;;;;;;;;;;;;;2.81;100.00;96573.63;5093824;28;19950;-78
2022/12/02 10:32:01;;;;;;;;;;;;;;;2.79;100.00;96570.38;5094064;28;19947;-78
2022/12/02 10:34:28;;;;;;;;;;;;;;;2.79;100.00;96570.38;5094385;28;19976;-78
2022/12/02 10:36:54;;;;;;;;;;;;;;;2.79;100.00;96566.03;5093767;28;19965;-78
2022/12/02 10:39:29;;;;;;;;;;;;;;;2.81;100.00;96569.25;5092932;28;19954;-78
2022/12/02 10:42:04;;;;;;;;;;;;;;;2.82;100.00;96564.88;5093810;28;19949;-79
2022/12/02 10:44:30;;;;;;;;;;;;;;;2.83;100.00;96558.72;5092497;28;19947;-79
2022/12/02 10:47:23;;;;;;;;;;;;;;;2.83;100.00;96558.72;5093015;28;19950;-78
2022/12/02 10:49:51;;;;;;;;;;;;;;;2.84;100.00;96561.16;5091534;28;20401;-78
2022/12/02 10:52:19;;;;;;;;;;;;;;;2.85;100.00;96549.81;5092300;28;19941;-78
2022/12/02 10:54:48;;;;;;;;;;;;;;;2.87;100.00;96554.03;5093907;28;19954;-79
2022/12/02 10:57:27;;;;;;;;;;;;;;;2.89;100.00;96546.91;5093413;28;19963;-78
2022/12/02 10:59:54;;;;;;;;;;;;;;;2.90;100.00;96548.50;5093662;28;19951;-78
2022/12/02 11:02:30;;;;;;;;;;;;;;;2.90;100.00;96549.31;5093554;28;19950;-81
2022/12/02 11:05:00;;;;;;;;;;;;;;;2.91;100.00;96544.94;5092598;28;19959;-80
2022/12/02 11:07:26;;;;;;;;;;;;;;;2.92;100.00;96551.72;5093538;28;19957;-80
2022/12/02 11:09:53;;;;;;;;;;;;;;;2.94;100.00;96542.84;5092397;28;19950;-80
2022/12/02 11:12:51;;;;;;;;;;;;;;;2.97;100.00;96541.69;5093402;28;20340;-80
2022/12/02 11:15:40;;;;;;;;;;;;;;;2.95;100.00;96536.66;5070315;28;19969;-80
2022/12/02 11:18:21;;;;;;;;;;;;;;;2.96;100.00;96530.53;5087623;28;19980;-80
2022/12/02 11:20:51;;;;;;;;;;;;;;;2.95;100.00;96539.25;5093314;28;20425;-80
2022/12/02 11:23:25;;;;;;;;;;;;;;;2.97;100.00;96534.72;5093342;28;19954;-79
2022/12/02 11:25:53;;;;;;;;;;;;;;;3.00;100.00;96529.22;5093377;28;19948;-79
2022/12/02 11:28:28;;;;;;;;;;;;;;;3.00;100.00;96524.03;5093557;28;19965;-80
2022/12/02 11:31:09;;;;;;;;;;;;;;;3.01;100.00;96523.03;5093293;28;19949;-79
2022/12/02 11:33:47;;;;;;;;;;;;;;;3.02;100.00;96522.09;5093730;28;19955;-80
2022/12/02 11:36:21;;;;;;;;;;;;;;;3.02;100.00;96522.09;5094334;28;20321;-80
2022/12/02 11:38:50;;;;;;;;;;;;;;;3.04;100.00;96519.31;5097460;28;19963;-80
2022/12/02 11:41:17;;;;;;;;;;;;;;;3.04;100.00;96517.53;5097285;28;19960;-79
2022/12/02 11:43:46;;;;;;;;;;;;;;;3.03;100.00;96517.72;5095773;28;19950;-80
2022/12/02 11:46:12;;;;;;;;;;;;;;;3.03;100.00;96517.72;5096825;28;19955;-79
2022/12/02 11:48:45;;;;;;;;;;;;;;;3.07;100.00;96512.97;5097245;28;19946;-79
2022/12/02 11:51:27;;;;;;;;;;;;;;;3.10;100.00;96503.09;5096936;28;19955;-79
2022/12/02 11:53:53;;;;;;;;;;;;;;;3.14;100.00;96506.94;5097204;28;19962;-80
2022/12/02 11:56:19;;;;;;;;;;;;;;;3.15;100.00;96502.56;5096767;28;20419;-80
2022/12/02 11:58:45;;;;;;;;;;;;;;;3.16;100.00;96501.63;5096652;28;19968;-80
2022/12/02 12:01:11;;;;;;;;;;;;;;;3.17;100.00;96500.63;5096478;28;19996;-80
2022/12/02 12:03:40;;;;;;;;;;;;;;;3.16;100.00;96496.44;5096417;28;19956;-80
2022/12/02 12:06:18;;;;;;;;;;;;;;;3.17;100.00;96500.63;5096698;28;20433;-80
2022/12/02 12:08:52;;;;;;;;;;;;;;;3.16;100.00;96497.22;5085631;28;19954;-80
2022/12/02 12:11:20;;;;;;;;;;;;;;;3.18;100.00;96497.06;5095153;28;19951;-80
2022/12/02 12:13:55;;;;;;;;;;;;;;;3.20;100.00;96492.53;5095260;28;19959;-80
2022/12/02 12:16:22;;;;;;;;;;;;;;;3.21;100.00;96496.72;5082758;28;19966;-80
2022/12/02 12:18:49;;;;;;;;;;;;;;;3.22;100.00;96496.56;5096293;28;19970;-80
2022/12/02 12:21:31;;;;;;;;;;;;;;;3.24;100.00;96493.81;5096188;28;19949;-79
2022/12/02 12:24:21;;;;;;;;;;;;;;;3.25;100.00;96488.44;5095024;28;19955;-80
2022/12/02 12:26:52;;;;;;;;;;;;;;;3.24;100.00;96489.41;5083190;28;19945;-79
2022/12/02 12:29:20;;;;;;;;;;;;;;;3.25;100.00;96490.22;5095054;28;19948;-79
2022/12/02 12:31:46;;;;;;;;;;;;;;;3.28;100.00;96481.31;5094940;28;19967;-80
2022/12/02 12:34:17;;;;;;;;;;;;;;;3.68;100.00;96482.03;5096145;28;19981;-81
2022/12/02 12:36:43;;;;;;;;;;;;;;;4.38;100.00;96475.72;5096131;28;19949;-81
2022/12/02 12:39:11;;;;;;;;;;;;;;;4.99;100.00;96471.13;5094095;28;21412;-79
2022/12/02 12:41:38;;;;;;;;;;;;;;;5.24;100.00;96476.03;5095887;28;19948;-80
2022/12/02 12:44:04;;;;;;;;;;;;;;;5.08;100.00;96464.84;5095863;28;19954;-81
2022/12/02 12:46:30;;;;;;;;;;;;;;;4.81;100.00;96466.34;5095752;28;19957;-81
2022/12/02 12:48:56;;;;;;;;;;;;;;;4.54;100.00;96466.97;5095341;28;19945;-80
2022/12/02 12:51:22;;;;;;;;;;;;;;;4.29;100.00;96463.81;5077684;28;19950;-80
2022/12/02 12:53:48;;;;;;;;;;;;;;;4.10;100.00;96460.75;5095554;28;20000;-80